Stacy, Minnesota
Current Conditions -  °F | °C
As of 8:35 AM on Thursday 30 Oct 2014 (Local Time) from KOEO Reporting Station
Overcast Overcast  
Wind Chill: 38°   Ceiling: 5000
Heat Index: 38°   Visibility: 10mi
Dew Point: 37°   Wind: 3mph
Humidity: 95%   Direction: 110°ESE
Pressure: 30.09"   Gusts: NA
Location:  45.4°N, 92.99°W
Report Text: KOEO 301335Z AUTO 11003KT 10SM BKN050 OVC065 04/03 A3009 RMK AO2 T00350027
Loading
Personal Weather Stations






























Interactive Weather Map
Tropical Storm Tracking
New forecast layout! Learn more

10-Day Weather Forecast

Advertisements
Track Severe Weather on mobile